Time;durP1;ratioP1;P1;durP2;ratioP2;P2;SDS_P1;SDS_P2;PMS_P1;PMS_P2;Temp;Humidity;BMP_temperature;BMP_pressure;BME280_temperature;BME280_humidity;BME280_pressure;Samples;Min_cycle;Max_cycle;Signal;HPM_P1;HPM_P2
2023/01/03 00:01:50;;;;;;;9.82;3.58;;;5.40;99.90;;;;;;5042368;28;20564;-90
2023/01/03 00:04:16;;;;;;;8.80;3.38;;;5.40;99.90;;;;;;5053787;28;20060;-90
2023/01/03 00:06:47;;;;;;;12.73;3.40;;;5.40;99.90;;;;;;5036876;28;20492;-91
2023/01/03 00:09:15;;;;;;;8.60;3.67;;;5.40;99.90;;;;;;5036528;28;20468;-90
2023/01/03 00:14:30;;;;;;;6.00;2.75;;;5.40;99.90;;;;;;5053149;28;20040;-91
2023/01/03 00:16:59;;;;;;;8.88;3.28;;;5.30;99.90;;;;;;5045513;28;20095;-90
2023/01/03 00:19:27;;;;;;;10.07;3.63;;;5.30;99.90;;;;;;5034938;28;20504;-90
2023/01/03 00:21:53;;;;;;;10.98;3.53;;;5.30;99.90;;;;;;5054044;28;20068;-91
2023/01/03 00:24:19;;;;;;;9.70;3.25;;;5.30;99.90;;;;;;5036310;28;20080;-90
2023/01/03 00:26:45;;;;;;;10.27;3.60;;;5.30;99.90;;;;;;5036128;28;20072;-91
2023/01/03 00:29:11;;;;;;;10.15;3.40;;;5.20;99.90;;;;;;5035854;28;20408;-90
2023/01/03 00:31:38;;;;;;;9.25;3.60;;;5.20;99.90;;;;;;5044810;28;20049;-90
2023/01/03 00:34:04;;;;;;;8.93;3.00;;;5.20;99.90;;;;;;5019924;28;20103;-91
2023/01/03 00:36:30;;;;;;;9.75;3.20;;;5.20;99.90;;;;;;5044615;28;20050;-90
2023/01/03 00:38:56;;;;;;;7.47;3.25;;;5.10;99.90;;;;;;5022711;28;20073;-90
2023/01/03 00:41:22;;;;;;;7.90;3.13;;;5.10;99.90;;;;;;5033512;28;20084;-90
2023/01/03 00:43:49;;;;;;;12.75;3.40;;;5.10;99.90;;;;;;5033552;28;20033;-90
2023/01/03 00:46:16;;;;;;;6.25;2.80;;;5.10;99.90;;;;;;5034929;28;20049;-90
2023/01/03 00:48:42;;;;;;;10.75;2.80;;;5.10;99.90;;;;;;5020532;28;20120;-90
2023/01/03 00:51:11;;;;;;;7.03;3.42;;;5.00;99.90;;;;;;5018624;28;20133;-90
2023/01/03 00:53:38;;;;;;;7.55;2.83;;;5.10;99.90;;;;;;5038497;28;20033;-91
2023/01/03 00:56:06;;;;;;;8.27;2.67;;;5.00;99.90;;;;;;5020111;28;20033;-91
2023/01/03 00:58:33;;;;;;;11.68;3.60;;;5.00;99.90;;;;;;5028832;28;20515;-90
2023/01/03 01:01:12;;;;;;;11.00;3.03;;;5.00;99.90;;;;;;5016346;28;20481;-90
2023/01/03 01:03:40;;;;;;;6.68;2.70;;;5.00;99.90;;;;;;5017314;28;20048;-90
2023/01/03 01:06:23;;;;;;;7.30;2.50;;;4.90;99.90;;;;;;5045925;28;20570;-91
2023/01/03 01:08:51;;;;;;;7.68;3.20;;;4.90;99.90;;;;;;5040770;28;20053;-89
2023/01/03 01:11:17;;;;;;;11.70;3.15;;;4.90;99.90;;;;;;5037994;28;20033;-90
2023/01/03 01:13:44;;;;;;;7.05;2.88;;;4.90;99.90;;;;;;5029648;28;20036;-90
2023/01/03 01:16:16;;;;;;;8.23;2.65;;;4.90;99.90;;;;;;5039151;28;20116;-89
2023/01/03 01:18:43;;;;;;;9.13;2.90;;;4.90;99.90;;;;;;5030948;28;20060;-90
2023/01/03 01:21:12;;;;;;;7.18;3.10;;;4.80;99.90;;;;;;5036411;28;20044;-90
2023/01/03 01:23:39;;;;;;;8.68;2.83;;;4.80;99.90;;;;;;5018366;28;20414;-90
2023/01/03 01:26:07;;;;;;;8.68;3.25;;;4.80;99.90;;;;;;5036434;28;20052;-89
2023/01/03 01:28:33;;;;;;;7.03;3.20;;;4.80;99.90;;;;;;5033431;28;20044;-89
2023/01/03 01:31:00;;;;;;;9.98;3.03;;;4.80;99.90;;;;;;5041044;28;20049;-89
2023/01/03 01:33:27;;;;;;;7.95;2.90;;;4.80;99.90;;;;;;5014764;28;20076;-90
2023/01/03 01:35:52;;;;;;;10.02;3.40;;;4.80;99.90;;;;;;5003117;28;20485;-89
2023/01/03 01:38:18;;;;;;;10.10;3.80;;;4.80;99.90;;;;;;5012725;28;20041;-89
2023/01/03 01:40:44;;;;;;;11.13;3.03;;;4.70;99.90;;;;;;5020120;28;20069;-89
2023/01/03 01:46:30;;;;;;;10.57;3.83;;;4.70;99.90;;;;;;5002171;28;20050;-90
2023/01/03 01:49:01;;;;;;;6.03;2.92;;;4.70;99.90;;;;;;5001880;28;20049;-90
2023/01/03 01:51:29;;;;;;;12.23;3.42;;;4.70;99.90;;;;;;5013076;28;20443;-89
2023/01/03 01:53:58;;;;;;;9.35;3.78;;;4.60;99.90;;;;;;5015362;28;20041;-89
2023/01/03 01:56:37;;;;;;;8.50;3.80;;;4.60;99.90;;;;;;5031459;28;20065;-89
2023/01/03 01:59:02;;;;;;;6.85;3.08;;;4.60;99.90;;;;;;5031724;28;20068;-89
2023/01/03 02:01:29;;;;;;;11.38;4.53;;;4.60;99.90;;;;;;5014732;28;20053;-89
2023/01/03 02:04:02;;;;;;;11.48;3.83;;;4.60;99.90;;;;;;5031739;28;20617;-89
2023/01/03 02:06:30;;;;;;;10.48;3.95;;;4.60;99.90;;;;;;5007583;28;20047;-89
2023/01/03 02:08:56;;;;;;;9.23;3.40;;;4.50;99.90;;;;;;5013956;28;20042;-89
2023/01/03 02:11:43;;;;;;;10.27;3.88;;;4.60;99.90;;;;;;5013707;28;20048;-89
2023/01/03 02:14:19;;;;;;;9.65;4.45;;;4.60;99.90;;;;;;5001225;28;20041;-89
2023/01/03 02:16:54;;;;;;;7.53;4.10;;;4.50;99.90;;;;;;5024144;28;20413;-89
2023/01/03 02:20:06;;;;;;;8.80;4.18;;;4.50;99.90;;;;;;5029513;28;20050;-89
2023/01/03 02:23:09;;;;;;;9.05;4.22;;;4.50;99.90;;;;;;5032089;28;20042;-89
2023/01/03 02:25:47;;;;;;;9.13;4.22;;;4.50;99.90;;;;;;5014130;28;20046;-89
2023/01/03 02:28:50;;;;;;;7.45;4.35;;;4.40;99.90;;;;;;5018927;28;20498;-89
2023/01/03 02:31:30;;;;;;;10.53;4.90;;;4.40;99.90;;;;;;5022021;28;20136;-89
2023/01/03 02:34:20;;;;;;;12.02;4.55;;;4.40;99.90;;;;;;5042644;28;20068;-90
2023/01/03 02:37:06;;;;;;;8.63;4.47;;;4.40;99.90;;;;;;5055590;28;20045;-89
2023/01/03 02:39:47;;;;;;;11.15;4.95;;;4.40;99.90;;;;;;5070316;28;20476;-89
2023/01/03 02:45:22;;;;;;;10.10;4.90;;;4.40;99.90;;;;;;5037187;28;20114;-89
2023/01/03 02:48:02;;;;;;;10.43;6.15;;;4.40;99.90;;;;;;5037542;28;20110;-89
2023/01/03 02:50:33;;;;;;;15.35;7.43;;;4.40;99.90;;;;;;5037159;28;20040;-89
2023/01/03 02:53:04;;;;;;;10.45;5.57;;;4.40;99.90;;;;;;5070865;28;20041;-89
2023/01/03 02:55:33;;;;;;;16.33;9.25;;;4.40;99.90;;;;;;5037609;28;20440;-89
2023/01/03 02:58:09;;;;;;;10.43;5.68;;;4.40;99.90;;;;;;5053843;28;20055;-89
2023/01/03 03:00:40;;;;;;;9.68;5.20;;;4.40;99.90;;;;;;5054948;28;20090;-89
2023/01/03 03:03:12;;;;;;;11.32;6.25;;;4.40;99.90;;;;;;5055018;28;20160;-89
2023/01/03 03:05:59;;;;;;;12.40;6.17;;;4.40;99.90;;;;;;5071213;28;20048;-89
2023/01/03 03:08:25;;;;;;;13.27;6.05;;;4.30;99.90;;;;;;5038239;28;20473;-89
2023/01/03 03:14:07;;;;;;;11.48;6.20;;;4.30;99.90;;;;;;5050979;28;20550;-90
2023/01/03 03:16:47;;;;;;;13.60;6.53;;;4.30;99.90;;;;;;5044001;28;20512;-89
2023/01/03 03:25:44;;;;;;;12.07;6.47;;;4.30;99.90;;;;;;5054422;28;20044;-89
2023/01/03 03:31:10;;;;;;;14.02;7.55;;;4.30;99.90;;;;;;5035169;28;20052;-89
2023/01/03 03:33:55;;;;;;;15.55;8.20;;;4.30;99.90;;;;;;5033766;28;20099;-89
2023/01/03 03:36:42;;;;;;;12.07;6.45;;;4.30;99.90;;;;;;5028561;28;20578;-89
2023/01/03 03:44:59;;;;;;;14.98;6.63;;;4.30;99.90;;;;;;5017289;28;20049;-89
2023/01/03 03:45:01;;;;;;;13.45;7.53;;;4.20;99.90;;;;;;5021103;28;20042;-89
2023/01/03 03:47:48;;;;;;;13.70;7.35;;;4.20;99.90;;;;;;5016559;28;20045;-89
2023/01/03 03:50:26;;;;;;;14.52;7.38;;;4.20;99.90;;;;;;5017523;28;20048;-89
2023/01/03 03:52:57;;;;;;;13.77;7.20;;;4.20;99.90;;;;;;5034523;28;20049;-89
2023/01/03 03:55:54;;;;;;;15.60;8.35;;;4.20;99.90;;;;;;5034139;28;20045;-89
2023/01/03 03:58:41;;;;;;;13.48;8.77;;;4.20;99.90;;;;;;5009050;28;20048;-89
2023/01/03 04:01:10;;;;;;;12.68;7.63;;;4.10;99.90;;;;;;5015775;28;20551;-89
2023/01/03 04:03:38;;;;;;;17.67;9.13;;;4.10;99.90;;;;;;5025360;28;20064;-89
2023/01/03 04:06:29;;;;;;;14.50;8.45;;;4.10;99.90;;;;;;5016413;28;20544;-89
2023/01/03 04:08:55;;;;;;;16.15;8.93;;;4.10;99.90;;;;;;5030205;28;20041;-89
2023/01/03 04:11:21;;;;;;;20.50;12.90;;;4.10;99.90;;;;;;5015471;28;20045;-89
2023/01/03 04:13:46;;;;;;;14.93;8.77;;;4.10;99.90;;;;;;5034778;28;20087;-89
2023/01/03 04:16:12;;;;;;;15.23;8.82;;;4.10;99.90;;;;;;5021909;28;20045;-89
2023/01/03 04:18:38;;;;;;;14.30;8.23;;;4.10;99.90;;;;;;5033298;28;20099;-89
2023/01/03 04:21:03;;;;;;;22.58;13.30;;;4.10;99.90;;;;;;5034262;28;20037;-89
2023/01/03 04:23:29;;;;;;;15.30;8.70;;;4.10;99.90;;;;;;5016199;28;20536;-89
2023/01/03 04:25:54;;;;;;;16.02;9.15;;;4.10;99.90;;;;;;5015437;28;20095;-89
2023/01/03 04:28:20;;;;;;;15.52;8.90;;;4.10;99.90;;;;;;5032744;28;20512;-88
2023/01/03 04:30:46;;;;;;;15.60;9.75;;;4.10;99.90;;;;;;5033827;28;20037;-88
2023/01/03 04:33:12;;;;;;;16.60;10.57;;;4.10;99.90;;;;;;5016558;28;20752;-89
2023/01/03 04:35:37;;;;;;;17.45;9.60;;;4.10;99.90;;;;;;5012168;28;20050;-89
2023/01/03 04:38:04;;;;;;;16.55;8.57;;;4.10;99.90;;;;;;5011249;28;20084;-89
2023/01/03 04:40:30;;;;;;;21.77;11.50;;;4.20;99.90;;;;;;5015168;28;20073;-89
2023/01/03 04:45:40;;;;;;;14.75;10.45;;;4.20;99.90;;;;;;5032716;28;20045;-89
2023/01/03 04:48:06;;;;;;;16.33;9.65;;;4.10;99.90;;;;;;5033841;28;20417;-89
2023/01/03 04:50:32;;;;;;;17.60;10.70;;;4.20;99.90;;;;;;5016160;28;20049;-89
2023/01/03 04:52:57;;;;;;;15.18;10.40;;;4.20;99.90;;;;;;5032993;28;20539;-89
2023/01/03 04:55:24;;;;;;;17.00;10.63;;;4.20;99.90;;;;;;5022294;28;20037;-89
2023/01/03 04:57:50;;;;;;;18.25;12.00;;;4.20;99.90;;;;;;5016361;28;20045;-89
2023/01/03 05:00:16;;;;;;;16.83;10.82;;;4.20;99.90;;;;;;5014296;28;20094;-89
2023/01/03 05:02:41;;;;;;;18.17;11.27;;;4.10;99.90;;;;;;5032183;28;20061;-88
2023/01/03 05:05:07;;;;;;;17.88;11.60;;;4.10;99.90;;;;;;5013254;28;20029;-89
2023/01/03 05:07:33;;;;;;;21.60;13.90;;;4.20;99.90;;;;;;5015068;28;20099;-89
2023/01/03 05:09:59;;;;;;;19.90;12.30;;;4.20;99.90;;;;;;5015152;28;20069;-88
2023/01/03 05:12:25;;;;;;;26.73;17.67;;;4.20;99.90;;;;;;5032606;28;20524;-88
2023/01/03 05:14:51;;;;;;;19.52;12.32;;;4.20;99.90;;;;;;5014394;28;20154;-89
2023/01/03 05:17:19;;;;;;;28.67;16.95;;;4.20;99.90;;;;;;5019809;28;20046;-89
2023/01/03 05:27:58;;;;;;;24.30;15.18;;;4.20;99.90;;;;;;5013969;28;20575;-88
2023/01/03 05:30:24;;;;;;;20.45;13.02;;;4.20;99.90;;;;;;5032416;28;20152;-89
2023/01/03 05:32:50;;;;;;;21.67;13.63;;;4.20;99.90;;;;;;5032264;28;20060;-89
2023/01/03 05:35:15;;;;;;;27.15;15.15;;;4.20;99.90;;;;;;5051245;28;20052;-89
2023/01/03 05:37:41;;;;;;;27.40;15.80;;;4.20;99.90;;;;;;5034234;28;20526;-89
2023/01/03 05:40:07;;;;;;;18.65;12.40;;;4.20;99.90;;;;;;5063547;28;20041;-89
2023/01/03 05:42:33;;;;;;;21.45;14.20;;;4.20;99.90;;;;;;5052407;28;20045;-89
2023/01/03 05:44:58;;;;;;;20.50;13.52;;;4.20;99.90;;;;;;5033733;28;20045;-89
2023/01/03 05:47:24;;;;;;;24.45;14.40;;;4.20;99.90;;;;;;5034438;28;20041;-89
2023/01/03 05:49:50;;;;;;;22.50;15.07;;;4.20;99.90;;;;;;5033923;28;20037;-89
2023/01/03 05:52:16;;;;;;;23.92;14.65;;;4.20;99.90;;;;;;5034423;28;20076;-89
2023/01/03 05:54:41;;;;;;;25.40;15.82;;;4.20;99.90;;;;;;5035141;28;20039;-89
2023/01/03 05:57:07;;;;;;;24.13;14.68;;;4.20;99.90;;;;;;5033722;28;20499;-89
2023/01/03 05:59:32;;;;;;;27.35;14.68;;;4.20;99.90;;;;;;5052029;28;20041;-89
2023/01/03 06:01:58;;;;;;;21.52;13.27;;;4.20;99.90;;;;;;5052619;28;20037;-89
2023/01/03 06:04:24;;;;;;;25.55;14.75;;;4.20;99.90;;;;;;5035638;28;20083;-89
2023/01/03 06:06:49;;;;;;;22.30;15.57;;;4.20;99.90;;;;;;5052763;28;20033;-89
2023/01/03 06:09:15;;;;;;;24.85;14.75;;;4.20;99.90;;;;;;5035214;28;20049;-89
2023/01/03 06:11:41;;;;;;;20.42;14.02;;;4.20;99.90;;;;;;5033862;28;20052;-89
2023/01/03 06:14:06;;;;;;;25.60;15.73;;;4.20;99.90;;;;;;5033840;28;20049;-89
2023/01/03 06:19:16;;;;;;;21.48;14.07;;;4.10;99.90;;;;;;5038594;28;20174;-89
2023/01/03 06:21:42;;;;;;;21.70;14.48;;;4.10;99.90;;;;;;5034549;28;20127;-89
2023/01/03 06:24:08;;;;;;;21.10;14.77;;;4.10;99.90;;;;;;5051373;28;20037;-89
2023/01/03 06:26:33;;;;;;;21.27;13.88;;;4.10;99.90;;;;;;5033653;28;20481;-88
2023/01/03 06:28:59;;;;;;;22.52;15.23;;;4.10;99.90;;;;;;5052360;28;20037;-89
2023/01/03 06:31:25;;;;;;;23.40;13.82;;;4.10;99.90;;;;;;5028976;28;20042;-89
2023/01/03 06:33:51;;;;;;;22.38;14.25;;;4.10;99.90;;;;;;5030982;28;20049;-89
2023/01/03 06:36:19;;;;;;;28.17;15.95;;;4.00;99.90;;;;;;5031267;28;20038;-89
2023/01/03 06:38:45;;;;;;;24.50;15.82;;;4.00;99.90;;;;;;5029133;28;20034;-88
2023/01/03 06:41:12;;;;;;;22.00;13.63;;;4.00;99.90;;;;;;5029990;28;20460;-87
2023/01/03 06:43:38;;;;;;;23.40;13.90;;;3.90;99.90;;;;;;5032116;28;20042;-88
2023/01/03 06:54:25;;;;;;;24.08;14.95;;;3.80;99.90;;;;;;5029430;28;20198;-89
2023/01/03 06:56:52;;;;;;;22.60;15.10;;;3.80;99.90;;;;;;5022360;28;20049;-89
2023/01/03 06:59:18;;;;;;;22.05;15.07;;;3.80;99.90;;;;;;5030376;28;20056;-89
2023/01/03 07:01:46;;;;;;;23.13;15.13;;;3.70;99.90;;;;;;5030924;28;20041;-88
2023/01/03 07:04:12;;;;;;;23.85;15.68;;;3.70;99.90;;;;;;5028932;28;20416;-88
2023/01/03 07:06:38;;;;;;;23.60;14.75;;;3.70;99.90;;;;;;5033066;28;20029;-87
2023/01/03 07:09:04;;;;;;;21.75;15.15;;;3.70;99.90;;;;;;5032156;28;20049;-90
2023/01/03 07:11:30;;;;;;;24.00;15.35;;;3.70;99.90;;;;;;5030363;28;20034;-89
2023/01/03 07:13:58;;;;;;;19.17;13.38;;;3.70;99.90;;;;;;5033947;28;20045;-88
2023/01/03 07:16:36;;;;;;;24.70;14.77;;;3.80;99.90;;;;;;5034593;28;20037;-88
2023/01/03 07:19:03;;;;;;;23.13;14.65;;;3.70;99.90;;;;;;5034344;28;20057;-89
2023/01/03 07:21:33;;;;;;;23.02;14.93;;;3.70;99.90;;;;;;5035694;28;20413;-88
2023/01/03 07:24:02;;;;;;;20.58;13.73;;;3.70;99.90;;;;;;5033361;28;20124;-88
2023/01/03 07:26:30;;;;;;;26.80;16.02;;;3.70;99.90;;;;;;5033624;28;20064;-88
2023/01/03 07:28:57;;;;;;;21.85;14.32;;;3.70;99.90;;;;;;5038087;28;20056;-89
2023/01/03 07:31:23;;;;;;;23.05;15.07;;;3.70;99.90;;;;;;5030756;28;20137;-88
2023/01/03 07:33:49;;;;;;;23.55;15.07;;;3.70;99.90;;;;;;5016643;28;20046;-87
2023/01/03 07:36:22;;;;;;;21.17;14.90;;;3.60;99.90;;;;;;5016642;28;20073;-89
2023/01/03 07:38:48;;;;;;;24.33;15.85;;;3.60;99.90;;;;;;5028072;28;20658;-87
2023/01/03 07:41:14;;;;;;;21.63;14.15;;;3.60;99.90;;;;;;5015048;28;20073;-89
2023/01/03 07:43:45;;;;;;;20.98;13.52;;;3.60;99.90;;;;;;5016288;28;20095;-90
2023/01/03 07:46:17;;;;;;;22.45;14.93;;;3.60;99.90;;;;;;5016441;28;20045;-90
2023/01/03 07:48:44;;;;;;;23.08;14.32;;;3.60;99.90;;;;;;5016772;28;20049;-90
2023/01/03 07:51:11;;;;;;;23.48;15.07;;;3.60;99.90;;;;;;5049889;28;20507;-89
2023/01/03 07:53:38;;;;;;;22.98;15.48;;;3.60;99.90;;;;;;5015201;28;20063;-89
2023/01/03 07:56:13;;;;;;;20.02;13.65;;;3.60;99.90;;;;;;5016617;28;20432;-88
2023/01/03 07:58:40;;;;;;;20.00;13.88;;;3.50;99.90;;;;;;5034842;28;20447;-87
2023/01/03 08:01:07;;;;;;;23.88;15.63;;;3.50;99.90;;;;;;5034109;28;20045;-90
2023/01/03 08:03:33;;;;;;;23.95;14.95;;;3.50;99.90;;;;;;5032915;28;20053;-89
2023/01/03 08:06:05;;;;;;;24.60;15.48;;;3.50;99.90;;;;;;5033589;28;20121;-89
2023/01/03 08:08:31;;;;;;;20.25;13.98;;;3.50;99.90;;;;;;5034480;28;20041;-89
2023/01/03 08:13:43;;;;;;;23.08;14.18;;;3.50;99.90;;;;;;5002610;28;20041;-88
2023/01/03 08:16:11;;;;;;;24.23;15.65;;;3.40;99.90;;;;;;5034475;28;20051;-88
2023/01/03 08:18:38;;;;;;;24.60;16.05;;;3.40;99.90;;;;;;5015983;28;20041;-88
2023/01/03 08:21:04;;;;;;;84.35;14.20;;;3.40;99.90;;;;;;5049328;28;20080;-88
2023/01/03 08:23:30;;;;;;;20.90;15.10;;;3.40;99.90;;;;;;5018812;28;20065;-88
2023/01/03 08:26:04;;;;;;;44.70;13.48;;;3.40;99.90;;;;;;5034332;28;20057;-88
2023/01/03 08:28:30;;;;;;;20.10;14.02;;;3.40;99.90;;;;;;5016751;28;20050;-88
2023/01/03 08:30:56;;;;;;;21.02;15.15;;;3.40;99.90;;;;;;5024473;28;20047;-87
2023/01/03 08:33:25;;;;;;;20.60;13.45;;;3.40;99.90;;;;;;5034258;28;20433;-88
2023/01/03 08:36:02;;;;;;;20.60;14.57;;;3.30;99.90;;;;;;5016885;28;20083;-88
2023/01/03 08:38:32;;;;;;;19.38;14.68;;;3.30;99.90;;;;;;4995921;28;20448;-88
2023/01/03 08:41:02;;;;;;;25.85;13.07;;;3.30;99.90;;;;;;5037057;28;20083;-88
2023/01/03 08:43:31;;;;;;;32.00;14.18;;;3.30;99.90;;;;;;5016294;28;20053;-88
2023/01/03 08:45:56;;;;;;;18.10;13.23;;;3.30;99.90;;;;;;5015747;28;20048;-87
2023/01/03 08:48:23;;;;;;;18.80;13.48;;;3.30;99.90;;;;;;5015965;28;20041;-88
2023/01/03 08:50:49;;;;;;;19.63;14.23;;;3.30;99.90;;;;;;5016266;28;20168;-88
2023/01/03 08:53:15;;;;;;;19.38;14.32;;;3.40;99.90;;;;;;5033179;28;20389;-88
2023/01/03 08:55:40;;;;;;;20.40;14.07;;;3.40;99.90;;;;;;5034051;28;20042;-87
2023/01/03 08:58:08;;;;;;;19.35;14.35;;;3.40;99.90;;;;;;5016409;28;20049;-88
2023/01/03 09:00:36;;;;;;;18.58;13.55;;;3.40;99.90;;;;;;5032958;28;20148;-87
2023/01/03 09:03:01;;;;;;;16.58;12.48;;;3.40;99.90;;;;;;5002611;28;20128;-87
2023/01/03 09:05:27;;;;;;;17.13;12.60;;;3.40;99.90;;;;;;5015537;28;20136;-87
2023/01/03 09:07:54;;;;;;;23.77;13.80;;;3.40;99.90;;;;;;5014966;28;20053;-87
2023/01/03 09:10:20;;;;;;;18.27;13.55;;;3.40;99.90;;;;;;5033220;28;20041;-87
2023/01/03 09:12:46;;;;;;;17.83;13.25;;;3.40;99.90;;;;;;5033003;28;20038;-87
2023/01/03 09:15:14;;;;;;;16.58;12.52;;;3.40;99.90;;;;;;5033242;28;20485;-87
2023/01/03 09:17:43;;;;;;;16.77;12.90;;;3.40;99.90;;;;;;5015725;28;20087;-88
2023/01/03 09:20:13;;;;;;;21.20;13.15;;;3.40;99.90;;;;;;5032621;28;20037;-88
2023/01/03 09:22:39;;;;;;;18.67;14.20;;;3.40;99.90;;;;;;5015846;28;20539;-87
2023/01/03 09:25:05;;;;;;;38.08;16.58;;;3.50;99.90;;;;;;5033641;28;20041;-87
2023/01/03 09:27:32;;;;;;;20.73;14.27;;;3.50;99.90;;;;;;5015555;28;20087;-89
2023/01/03 09:29:58;;;;;;;31.33;14.82;;;3.50;99.90;;;;;;5020035;28;20038;-86
2023/01/03 09:32:24;;;;;;;20.25;14.23;;;3.50;99.90;;;;;;5014520;28;20049;-86
2023/01/03 09:34:49;;;;;;;18.77;13.98;;;3.50;99.90;;;;;;5012309;28;20083;-86
2023/01/03 09:37:15;;;;;;;22.05;14.35;;;3.50;99.90;;;;;;5031793;28;20084;-86
2023/01/03 09:39:41;;;;;;;22.20;15.85;;;3.50;99.90;;;;;;5015380;28;20037;-86
2023/01/03 09:45:10;;;;;;;54.65;23.35;;;3.60;99.90;;;;;;5012677;28;20540;-85
2023/01/03 09:47:37;;;;;;;63.40;25.30;;;3.60;99.90;;;;;;5033626;28;20052;-85
2023/01/03 09:50:09;;;;;;;34.88;22.90;;;3.70;99.90;;;;;;5013982;28;20393;-85
2023/01/03 10:04:39;;;;;;;64.63;31.98;;;3.90;99.90;;;;;;5013953;28;20728;-88
2023/01/03 10:07:20;;;;;;;53.70;29.33;;;3.90;99.90;;;;;;5003144;28;20049;-88
2023/01/03 10:10:04;;;;;;;37.33;23.10;;;4.00;99.90;;;;;;5014073;28;20061;-88
2023/01/03 10:12:37;;;;;;;62.03;31.48;;;4.00;99.90;;;;;;5032329;28;20427;-88
2023/01/03 10:15:34;;;;;;;36.30;23.90;;;4.10;99.90;;;;;;5018110;28;20045;-88
2023/01/03 10:18:08;;;;;;;35.97;23.75;;;4.10;99.90;;;;;;5032273;28;20042;-88
2023/01/03 10:20:53;;;;;;;72.63;34.17;;;4.10;99.90;;;;;;5032170;28;20095;-88
2023/01/03 10:23:19;;;;;;;59.35;31.13;;;4.20;99.90;;;;;;5018768;28;20047;-87
2023/01/03 10:25:46;;;;;;;58.22;30.77;;;4.20;99.90;;;;;;5032336;28;20064;-87
2023/01/03 10:28:30;;;;;;;59.42;30.92;;;4.20;99.90;;;;;;5032502;28;20124;-88
2023/01/03 10:31:06;;;;;;;;;;;4.30;99.90;;;;;;5014625;28;20413;-86
2023/01/03 10:33:40;;;;;;;58.83;29.02;;;4.30;99.90;;;;;;5014924;28;19925;-87
2023/01/03 10:36:07;;;;;;;63.85;33.47;;;4.30;99.90;;;;;;5032415;28;20042;-86
2023/01/03 10:38:33;;;;;;;73.18;36.00;;;4.30;99.90;;;;;;5014112;28;20247;-86
2023/01/03 10:41:01;;;;;;;61.28;33.92;;;4.40;99.90;;;;;;5014614;28;20056;-86
2023/01/03 10:43:42;;;;;;;75.63;36.67;;;4.40;99.90;;;;;;5014064;28;20060;-86
2023/01/03 10:46:21;;;;;;;59.35;32.67;;;4.50;99.90;;;;;;5016482;28;20041;-86
2023/01/03 10:48:49;;;;;;;60.25;32.40;;;4.50;99.90;;;;;;5036600;28;20045;-86
2023/01/03 10:51:23;;;;;;;79.03;38.08;;;4.60;99.90;;;;;;5035006;28;20388;-86
2023/01/03 10:53:51;;;;;;;80.90;37.60;;;4.60;99.90;;;;;;5036379;28;20049;-86
2023/01/03 10:56:18;;;;;;;76.93;38.05;;;4.70;99.90;;;;;;5017804;28;20069;-88
2023/01/03 10:58:44;;;;;;;52.15;31.23;;;4.70;99.90;;;;;;5034716;28;20057;-89
2023/01/03 11:01:21;;;;;;;71.03;35.85;;;4.70;99.90;;;;;;5035299;28;20037;-86
2023/01/03 11:04:05;;;;;;;58.42;31.83;;;4.80;99.90;;;;;;5018421;28;20413;-85
2023/01/03 11:06:32;;;;;;;54.38;31.27;;;4.80;99.90;;;;;;5015962;28;20064;-86
2023/01/03 11:09:02;;;;;;;78.20;37.45;;;4.80;99.90;;;;;;5017251;28;20045;-88
2023/01/03 11:11:34;;;;;;;63.33;33.50;;;4.80;99.90;;;;;;5035380;28;20048;-85
2023/01/03 11:14:10;;;;;;;57.35;31.52;;;4.90;99.90;;;;;;5020035;28;20128;-86
2023/01/03 11:16:35;;;;;;;60.00;33.78;;;4.90;99.90;;;;;;5021897;28;20045;-86
2023/01/03 11:19:05;;;;;;;59.28;33.60;;;4.90;99.90;;;;;;5035866;28;20545;-86
2023/01/03 11:21:53;;;;;;;55.33;30.80;;;5.00;99.90;;;;;;5034489;28;20045;-86
2023/01/03 11:24:32;;;;;;;53.83;30.85;;;5.00;99.90;;;;;;5017933;28;20167;-86
2023/01/03 11:26:57;;;;;;;52.92;31.30;;;5.00;99.90;;;;;;5016799;28;20397;-85
2023/01/03 11:29:38;;;;;;;62.47;31.33;;;5.10;99.90;;;;;;5034927;28;20037;-85
2023/01/03 11:32:10;;;;;;;49.83;29.27;;;5.10;99.90;;;;;;5016420;28;20069;-85
2023/01/03 11:34:47;;;;;;;59.65;31.08;;;5.20;99.90;;;;;;5034641;28;20053;-85
2023/01/03 11:37:19;;;;;;;51.25;28.60;;;5.20;99.90;;;;;;5016951;28;20045;-85
2023/01/03 11:39:54;;;;;;;53.80;29.63;;;5.20;99.90;;;;;;5017411;28;20707;-86
2023/01/03 11:42:31;;;;;;;54.42;29.10;;;5.30;99.90;;;;;;5033574;28;20260;-85
2023/01/03 11:45:06;;;;;;;55.63;29.65;;;5.30;99.90;;;;;;5038976;28;20040;-85
2023/01/03 11:48:10;;;;;;;54.72;28.63;;;5.40;99.90;;;;;;5032868;28;20041;-85
2023/01/03 11:51:01;;;;;;;54.57;28.30;;;5.50;99.90;;;;;;5034303;28;20084;-87
2023/01/03 11:53:34;;;;;;;62.00;29.70;;;5.50;99.90;;;;;;5014905;28;20046;-86
2023/01/03 11:56:22;;;;;;;53.08;28.42;;;5.60;99.90;;;;;;5039364;28;20045;-86
2023/01/03 11:59:09;;;;;;;45.55;24.92;;;5.60;99.90;;;;;;5034502;28;20037;-88
2023/01/03 12:02:07;;;;;;;51.90;27.40;;;5.70;99.90;;;;;;5018419;28;20393;-86
2023/01/03 12:05:05;;;;;;;67.05;35.85;;;5.70;99.90;;;;;;5034762;28;20124;-87
2023/01/03 12:07:53;;;;;;;47.80;26.25;;;5.80;99.90;;;;;;5017108;28;20041;-88
2023/01/03 12:10:41;;;;;;;47.10;26.58;;;5.80;99.90;;;;;;5002481;28;20063;-88
2023/01/03 12:13:44;;;;;;;47.17;24.88;;;5.80;99.90;;;;;;5034579;28;20041;-91
2023/01/03 12:16:16;;;;;;;50.45;26.35;;;5.80;99.90;;;;;;5016420;28;20049;-92
2023/01/03 12:18:44;;;;;;;42.47;23.85;;;5.90;99.90;;;;;;5020994;28;20045;-91
2023/01/03 12:21:51;;;;;;;77.30;43.13;;;5.90;99.90;;;;;;5016313;28;20041;-90
2023/01/03 12:24:54;;;;;;;42.47;24.30;;;5.90;99.90;;;;;;4937262;29;20047;-89
2023/01/03 12:27:29;;;;;;;46.95;24.75;;;6.00;99.90;;;;;;4990224;28;20128;-90
2023/01/03 12:29:58;;;;;;;49.28;24.65;;;6.00;99.90;;;;;;5033196;28;20195;-91
2023/01/03 12:32:33;;;;;;;43.60;23.13;;;6.00;99.90;;;;;;5015515;28;20124;-88
2023/01/03 12:35:22;;;;;;;44.08;23.48;;;6.10;99.90;;;;;;5052862;28;20556;-88
2023/01/03 12:37:50;;;;;;;47.85;23.33;;;6.10;99.90;;;;;;5052935;28;20485;-86
2023/01/03 12:40:42;;;;;;;43.67;23.02;;;6.10;99.90;;;;;;5035933;28;20044;-87
2023/01/03 12:43:17;;;;;;;47.17;27.08;;;6.10;99.90;;;;;;5035571;28;20412;-87
2023/01/03 12:45:52;;;;;;;49.85;26.10;;;6.10;99.90;;;;;;5046122;28;20499;-90
2023/01/03 12:48:32;;;;;;;41.92;24.23;;;6.20;99.90;;;;;;5037396;28;20037;-88
2023/01/03 12:50:58;;;;;;;48.40;23.88;;;6.20;99.90;;;;;;5052732;28;20041;-88
2023/01/03 12:53:36;;;;;;;43.38;23.10;;;6.20;99.90;;;;;;5053210;28;20171;-88
2023/01/03 12:56:22;;;;;;;36.95;21.27;;;6.20;99.90;;;;;;5037394;28;20106;-88
2023/01/03 12:59:05;;;;;;;36.75;20.42;;;6.20;99.90;;;;;;5052994;28;20037;-88
2023/01/03 13:01:45;;;;;;;38.47;21.02;;;6.30;99.90;;;;;;5036019;28;20125;-88
2023/01/03 13:04:17;;;;;;;48.22;23.58;;;6.30;99.90;;;;;;5035805;28;20107;-88
2023/01/03 13:06:57;;;;;;;42.55;20.40;;;6.30;99.90;;;;;;5034839;28;20132;-89
2023/01/03 13:09:30;;;;;;;38.30;21.17;;;6.30;99.90;;;;;;5053394;28;20045;-88
2023/01/03 13:12:01;;;;;;;34.88;19.95;;;6.30;99.90;;;;;;5035143;28;20041;-88
2023/01/03 13:14:27;;;;;;;36.50;19.90;;;6.40;99.90;;;;;;5035448;28;20139;-88
2023/01/03 13:16:55;;;;;;;38.10;20.40;;;6.40;99.90;;;;;;5067044;28;20055;-88
2023/01/03 13:19:21;;;;;;;42.78;21.23;;;6.40;99.90;;;;;;5035013;28;20485;-88
2023/01/03 13:21:53;;;;;;;42.05;21.33;;;6.40;99.90;;;;;;5053070;28;20044;-88
2023/01/03 13:24:44;;;;;;;33.15;18.42;;;6.50;99.90;;;;;;5035046;28;20041;-88
2023/01/03 13:27:16;;;;;;;38.28;18.83;;;6.50;99.90;;;;;;5037217;28;20127;-87
2023/01/03 13:29:47;;;;;;;34.50;18.52;;;6.50;99.90;;;;;;5035340;28;20061;-87
2023/01/03 13:32:18;;;;;;;39.25;19.40;;;6.50;99.90;;;;;;5040254;28;20564;-87
2023/01/03 13:35:04;;;;;;;30.23;18.60;;;6.50;99.90;;;;;;5031528;28;20409;-87
2023/01/03 13:37:53;;;;;;;34.28;17.27;;;6.50;99.90;;;;;;5014912;28;20107;-87
2023/01/03 13:40:37;;;;;;;36.53;19.80;;;6.50;99.90;;;;;;5027277;28;20048;-87
2023/01/03 13:43:15;;;;;;;42.75;21.70;;;6.60;99.90;;;;;;5020689;28;20060;-87
2023/01/03 13:45:44;;;;;;;39.00;21.67;;;6.60;99.90;;;;;;5043819;28;20091;-86
2023/01/03 13:48:21;;;;;;;34.72;18.65;;;6.60;99.90;;;;;;5016814;28;20052;-86
2023/01/03 13:51:06;;;;;;;36.65;19.45;;;6.60;99.90;;;;;;5034166;28;20088;-86
2023/01/03 13:53:37;;;;;;;34.08;19.27;;;6.70;99.90;;;;;;5015416;28;20049;-86
2023/01/03 13:56:15;;;;;;;39.45;20.58;;;6.70;99.90;;;;;;5024238;28;20447;-87
2023/01/03 13:58:51;;;;;;;44.55;20.48;;;6.70;99.90;;;;;;5017284;28;20536;-95
2023/01/03 14:01:24;;;;;;;35.33;18.90;;;6.80;99.90;;;;;;5017976;28;20076;-95
2023/01/03 14:04:11;;;;;;;34.50;18.17;;;6.80;99.90;;;;;;5017032;28;20085;-86
2023/01/03 14:06:53;;;;;;;31.42;17.98;;;6.80;99.90;;;;;;5036344;28;20056;-86
2023/01/03 14:09:31;;;;;;;37.22;19.42;;;6.80;99.90;;;;;;5014646;28;20038;-86